Time;durP1;ratioP1;P1;durP2;ratioP2;P2;SDS_P1;SDS_P2;PMS_P1;PMS_P2;Temp;Humidity;BMP_temperature;BMP_pressure;BME280_temperature;BME280_humidity;BME280_pressure;Samples;Min_cycle;Max_cycle;Signal;HPM_P1;HPM_P2
2022/05/15 00:01:09;;;;;;;;;1.75;1.75;;;;;;;;5060556;28;10285;-76
2022/05/15 00:03:36;;;;;;;;;2.00;2.00;;;;;;;;5057472;28;10565;-76
2022/05/15 00:06:06;;;;;;;;;3.00;3.00;;;;;;;;5058671;28;10480;-76
2022/05/15 00:08:35;;;;;;;;;3.75;3.75;;;;;;;;5061097;28;10609;-76
2022/05/15 00:11:08;;;;;;;;;3.00;1.50;;;;;;;;5060504;28;10450;-76
2022/05/15 00:13:35;;;;;;;;;4.50;2.50;;;;;;;;5048204;28;10590;-76
2022/05/15 00:16:06;;;;;;;;;3.50;3.50;;;;;;;;5030591;28;10498;-76
2022/05/15 00:18:33;;;;;;;;;3.00;3.00;;;;;;;;5056782;28;10528;-77
2022/05/15 00:21:01;;;;;;;;;4.00;4.00;;;;;;;;5063302;28;11289;-76
2022/05/15 00:23:29;;;;;;;;;3.75;3.00;;;;;;;;5064404;28;10748;-77
2022/05/15 00:25:56;;;;;;;;;3.00;3.00;;;;;;;;5059821;28;11243;-76
2022/05/15 00:28:25;;;;;;;;;3.25;3.25;;;;;;;;5054882;28;10626;-76
2022/05/15 00:30:53;;;;;;;;;2.75;2.75;;;;;;;;5055834;28;10614;-76
2022/05/15 00:33:21;;;;;;;;;3.00;3.00;;;;;;;;5060081;28;10625;-76
2022/05/15 00:35:48;;;;;;;;;3.00;3.00;;;;;;;;5062070;28;10579;-76
2022/05/15 00:38:15;;;;;;;;;3.00;3.00;;;;;;;;5058164;28;11385;-76
2022/05/15 00:40:45;;;;;;;;;3.50;3.50;;;;;;;;5058737;28;10699;-76
2022/05/15 00:43:14;;;;;;;;;4.00;2.50;;;;;;;;5048613;28;10527;-76
2022/05/15 00:45:43;;;;;;;;;2.75;2.75;;;;;;;;5041694;28;10518;-76
2022/05/15 00:48:11;;;;;;;;;2.25;2.25;;;;;;;;5057570;28;11409;-76
2022/05/15 00:50:39;;;;;;;;;4.00;3.00;;;;;;;;5060983;28;10762;-76
2022/05/15 00:53:11;;;;;;;;;3.00;3.00;;;;;;;;5060759;28;10605;-77
2022/05/15 00:55:42;;;;;;;;;2.25;2.25;;;;;;;;5042400;28;10626;-76
2022/05/15 00:58:13;;;;;;;;;3.25;3.25;;;;;;;;5053800;28;11763;-76
2022/05/15 01:00:43;;;;;;;;;3.00;3.00;;;;;;;;5051015;28;10632;-77
2022/05/15 01:03:13;;;;;;;;;3.75;2.25;;;;;;;;5064287;28;10613;-76
2022/05/15 01:05:43;;;;;;;;;3.00;3.00;;;;;;;;5064066;28;10615;-76
2022/05/15 01:08:11;;;;;;;;;2.25;2.25;;;;;;;;5061846;28;10695;-76
2022/05/15 01:10:42;;;;;;;;;2.00;2.00;;;;;;;;5047782;28;10689;-76
2022/05/15 01:13:10;;;;;;;;;2.00;2.00;;;;;;;;5063066;28;10670;-76
2022/05/15 01:15:39;;;;;;;;;4.25;2.50;;;;;;;;5070705;28;10605;-77
2022/05/15 01:18:09;;;;;;;;;2.50;2.50;;;;;;;;5057420;28;10663;-76
2022/05/15 01:20:38;;;;;;;;;3.50;3.50;;;;;;;;5056974;28;10604;-76
2022/05/15 01:23:07;;;;;;;;;2.00;2.00;;;;;;;;5054155;28;10644;-76
2022/05/15 01:25:37;;;;;;;;;1.25;1.25;;;;;;;;5069746;28;11947;-77
2022/05/15 01:28:07;;;;;;;;;2.00;2.00;;;;;;;;5057585;28;10490;-77
2022/05/15 01:30:36;;;;;;;;;2.00;2.00;;;;;;;;5060221;28;10409;-76
2022/05/15 01:33:04;;;;;;;;;4.50;2.25;;;;;;;;5063217;28;10624;-76
2022/05/15 01:35:32;;;;;;;;;1.75;1.00;;;;;;;;5056962;28;10796;-75
2022/05/15 01:37:59;;;;;;;;;4.50;2.00;;;;;;;;5058004;28;10682;-75
2022/05/15 01:40:28;;;;;;;;;3.50;3.00;;;;;;;;5059529;28;10784;-76
2022/05/15 01:42:55;;;;;;;;;2.75;2.75;;;;;;;;5062235;28;10780;-76
2022/05/15 01:45:23;;;;;;;;;2.25;2.25;;;;;;;;5059097;28;10710;-76
2022/05/15 01:47:50;;;;;;;;;3.00;3.00;;;;;;;;5059997;28;10734;-76
2022/05/15 01:50:18;;;;;;;;;4.00;2.75;;;;;;;;5033855;28;10786;-77
2022/05/15 01:52:46;;;;;;;;;4.00;2.75;;;;;;;;5057976;28;10698;-77
2022/05/15 01:55:13;;;;;;;;;7.50;3.25;;;;;;;;5061857;28;10770;-77
2022/05/15 01:57:42;;;;;;;;;4.25;2.25;;;;;;;;5056389;28;10743;-77
2022/05/15 02:00:13;;;;;;;;;3.50;3.50;;;;;;;;5057443;28;10679;-77
2022/05/15 02:02:40;;;;;;;;;3.00;3.00;;;;;;;;5056337;28;11618;-77
2022/05/15 02:05:08;;;;;;;;;8.00;4.00;;;;;;;;5035333;28;10754;-77
2022/05/15 02:07:36;;;;;;;;;3.75;3.75;;;;;;;;5061551;28;10849;-77
2022/05/15 02:10:04;;;;;;;;;2.00;2.00;;;;;;;;5058606;28;10829;-77
2022/05/15 02:12:36;;;;;;;;;6.00;3.75;;;;;;;;5059171;28;10798;-77
2022/05/15 02:15:06;;;;;;;;;3.50;2.75;;;;;;;;5059745;28;10786;-76
2022/05/15 02:17:33;;;;;;;;;6.00;6.00;;;;;;;;5035529;28;11438;-77
2022/05/15 02:20:01;;;;;;;;;4.00;3.75;;;;;;;;5055926;28;10679;-77
2022/05/15 02:22:28;;;;;;;;;6.00;3.00;;;;;;;;5060537;28;10788;-76
2022/05/15 02:24:55;;;;;;;;;7.25;5.50;;;;;;;;5061729;28;10668;-77
2022/05/15 02:27:23;;;;;;;;;3.00;3.00;;;;;;;;5062298;28;10770;-76
2022/05/15 02:29:50;;;;;;;;;3.75;3.75;;;;;;;;5053431;28;10694;-76
2022/05/15 02:32:19;;;;;;;;;5.00;5.00;;;;;;;;5049156;28;10660;-77
2022/05/15 02:34:46;;;;;;;;;6.00;3.50;;;;;;;;5057096;28;11436;-76
2022/05/15 02:37:13;;;;;;;;;6.00;6.00;;;;;;;;5060799;28;10680;-76
2022/05/15 02:39:41;;;;;;;;;6.00;3.75;;;;;;;;5057463;28;10614;-76
2022/05/15 02:42:09;;;;;;;;;4.00;4.00;;;;;;;;5056023;28;10861;-76
2022/05/15 02:44:36;;;;;;;;;8.00;6.00;;;;;;;;5060749;28;10868;-77
2022/05/15 02:47:04;;;;;;;;;5.50;5.50;;;;;;;;5043150;28;10818;-77
2022/05/15 02:52:18;;;;;;;;;4.00;4.00;;;;;;;;5048037;28;10891;-77
2022/05/15 02:54:45;;;;;;;;;7.50;6.00;;;;;;;;5064398;28;11559;-76
2022/05/15 02:57:12;;;;;;;;;7.50;6.00;;;;;;;;5067354;28;10916;-77
2022/05/15 02:59:40;;;;;;;;;4.00;4.00;;;;;;;;5057884;28;10765;-77
2022/05/15 03:02:07;;;;;;;;;7.25;5.00;;;;;;;;5051197;28;10707;-78
2022/05/15 03:04:36;;;;;;;;;6.00;6.00;;;;;;;;5058447;28;10774;-77
2022/05/15 03:07:05;;;;;;;;;6.00;6.00;;;;;;;;5053234;28;10764;-77
2022/05/15 03:09:36;;;;;;;;;3.00;3.00;;;;;;;;5053731;28;10753;-77
2022/05/15 03:12:04;;;;;;;;;6.25;6.00;;;;;;;;5060156;28;10693;-77
2022/05/15 03:14:34;;;;;;;;;4.25;4.25;;;;;;;;5061402;28;10645;-77
2022/05/15 03:17:02;;;;;;;;;7.00;7.00;;;;;;;;5057266;28;10623;-77
2022/05/15 03:19:29;;;;;;;;;6.50;6.50;;;;;;;;5060497;28;10786;-77
2022/05/15 03:21:58;;;;;;;;;5.00;5.00;;;;;;;;5061196;28;10684;-77
2022/05/15 03:24:25;;;;;;;;;6.25;6.25;;;;;;;;5061504;28;10791;-77
2022/05/15 03:26:53;;;;;;;;;6.25;6.25;;;;;;;;5061993;28;10757;-77
2022/05/15 03:29:21;;;;;;;;;7.75;5.50;;;;;;;;5040447;28;11535;-77
2022/05/15 03:31:48;;;;;;;;;4.00;4.00;;;;;;;;5055850;28;10653;-77
2022/05/15 03:34:17;;;;;;;;;6.00;6.00;;;;;;;;5063357;28;10686;-77
2022/05/15 03:36:46;;;;;;;;;7.50;7.50;;;;;;;;5060905;28;10589;-77
2022/05/15 03:39:16;;;;;;;;;5.75;4.00;;;;;;;;5054537;28;11418;-77
2022/05/15 03:41:44;;;;;;;;;3.00;3.00;;;;;;;;5060776;28;10710;-77
2022/05/15 03:44:11;;;;;;;;;6.50;4.50;;;;;;;;5054529;28;10536;-77
2022/05/15 03:46:39;;;;;;;;;4.50;4.50;;;;;;;;5063379;28;10622;-77
2022/05/15 03:49:07;;;;;;;;;5.00;5.00;;;;;;;;5054305;28;10581;-76
2022/05/15 03:51:35;;;;;;;;;4.00;3.00;;;;;;;;5056776;28;10693;-76
2022/05/15 03:54:02;;;;;;;;;6.75;4.50;;;;;;;;5059752;28;10439;-76
2022/05/15 03:59:16;;;;;;;;;3.00;3.00;;;;;;;;5061511;28;10508;-76
2022/05/15 04:01:44;;;;;;;;;3.75;3.75;;;;;;;;5050751;28;10478;-76
2022/05/15 04:04:11;;;;;;;;;3.25;3.00;;;;;;;;5060033;28;10607;-76
2022/05/15 04:06:38;;;;;;;;;2.00;2.00;;;;;;;;5062770;28;10583;-77
2022/05/15 04:09:06;;;;;;;;;3.75;3.00;;;;;;;;5064129;28;10472;-76
2022/05/15 04:11:36;;;;;;;;;4.00;4.00;;;;;;;;5056794;28;10458;-77
2022/05/15 04:14:04;;;;;;;;;4.00;3.00;;;;;;;;5059154;28;11256;-77
2022/05/15 04:16:31;;;;;;;;;3.00;3.00;;;;;;;;5054543;28;10467;-76
2022/05/15 04:18:58;;;;;;;;;4.75;4.00;;;;;;;;5061679;28;10423;-76
2022/05/15 04:21:26;;;;;;;;;2.00;2.00;;;;;;;;5062491;28;11344;-77
2022/05/15 04:23:53;;;;;;;;;5.50;5.50;;;;;;;;5059335;28;10323;-76
2022/05/15 04:26:20;;;;;;;;;1.75;1.75;;;;;;;;5062172;28;11605;-77
2022/05/15 04:28:49;;;;;;;;;3.00;3.00;;;;;;;;5064101;28;10300;-76
2022/05/15 04:31:16;;;;;;;;;2.75;2.75;;;;;;;;5065753;28;10473;-76
2022/05/15 04:33:44;;;;;;;;;3.50;3.50;;;;;;;;5065873;28;10427;-77
2022/05/15 04:36:11;;;;;;;;;3.50;3.50;;;;;;;;5064658;28;10487;-77
2022/05/15 04:38:39;;;;;;;;;4.00;4.00;;;;;;;;5063031;28;10261;-76
2022/05/15 04:41:06;;;;;;;;;3.00;3.00;;;;;;;;5061577;28;11245;-76
2022/05/15 04:43:34;;;;;;;;;2.00;2.00;;;;;;;;5060051;28;10403;-76
2022/05/15 04:46:07;;;;;;;;;3.00;3.00;;;;;;;;5081176;28;10129;-77
2022/05/15 04:48:35;;;;;;;;;6.25;3.00;;;;;;;;5062741;28;10307;-77
2022/05/15 04:51:02;;;;;;;;;2.00;2.00;;;;;;;;5061325;28;10962;-77
2022/05/15 04:53:30;;;;;;;;;2.75;2.75;;;;;;;;5036824;28;10302;-77
2022/05/15 04:55:57;;;;;;;;;3.00;3.00;;;;;;;;5069558;28;10321;-78
2022/05/15 04:58:25;;;;;;;;;6.25;3.50;;;;;;;;5064258;28;10276;-77
2022/05/15 05:00:52;;;;;;;;;3.00;3.00;;;;;;;;5050784;28;10295;-77
2022/05/15 05:03:21;;;;;;;;;2.75;2.75;;;;;;;;5056443;28;10342;-76
2022/05/15 05:05:49;;;;;;;;;3.00;3.00;;;;;;;;5067095;28;10190;-77
2022/05/15 05:08:16;;;;;;;;;3.00;3.00;;;;;;;;5062284;28;10079;-77
2022/05/15 05:10:43;;;;;;;;;4.25;4.25;;;;;;;;5053637;28;10170;-76
2022/05/15 05:13:11;;;;;;;;;2.50;2.50;;;;;;;;5065041;28;10770;-77
2022/05/15 05:15:38;;;;;;;;;5.25;3.00;;;;;;;;5050256;28;10108;-77
2022/05/15 05:18:06;;;;;;;;;5.00;3.50;;;;;;;;5058131;28;9984;-78
2022/05/15 05:20:36;;;;;;;;;4.25;3.50;;;;;;;;5064012;28;10622;-79
2022/05/15 05:23:04;;;;;;;;;2.00;2.00;;;;;;;;5042600;28;9949;-79
2022/05/15 05:25:31;;;;;;;;;3.00;3.00;;;;;;;;5046580;28;9859;-79
2022/05/15 05:27:59;;;;;;;;;3.00;3.00;;;;;;;;5053611;28;9945;-79
2022/05/15 05:30:26;;;;;;;;;4.00;4.00;;;;;;;;5051699;28;9873;-77
2022/05/15 05:32:54;;;;;;;;;4.00;4.00;;;;;;;;5060786;28;9867;-78
2022/05/15 05:35:24;;;;;;;;;3.50;3.50;;;;;;;;5052787;28;10566;-77
2022/05/15 05:37:53;;;;;;;;;5.25;2.75;;;;;;;;5053356;28;9943;-76
2022/05/15 05:40:22;;;;;;;;;5.00;4.00;;;;;;;;5057566;28;9688;-77
2022/05/15 05:42:49;;;;;;;;;5.75;3.00;;;;;;;;5056279;28;9625;-76
2022/05/15 05:45:17;;;;;;;;;5.00;4.75;;;;;;;;5059991;28;9541;-76
2022/05/15 05:47:46;;;;;;;;;3.75;3.75;;;;;;;;5049461;28;9701;-77
2022/05/15 05:50:13;;;;;;;;;6.25;4.75;;;;;;;;5044019;28;9524;-80
2022/05/15 05:52:42;;;;;;;;;4.00;3.33;;;;;;;;5060767;28;9575;-82
2022/05/15 05:55:17;;;;;;;;;5.33;3.67;;;;;;;;5059803;28;10220;-81
2022/05/15 05:57:45;;;;;;;;;4.00;4.00;;;;;;;;5050060;28;9602;-82
2022/05/15 06:00:16;;;;;;;;;4.67;4.67;;;;;;;;5065367;28;9294;-87
2022/05/15 06:02:43;;;;;;;;;3.00;3.00;;;;;;;;5063722;28;9421;-86
2022/05/15 06:05:10;;;;;;;;;5.00;5.00;;;;;;;;5070222;28;9407;-80
2022/05/15 06:07:38;;;;;;;;;5.67;4.00;;;;;;;;5065644;28;9304;-82
2022/05/15 06:10:13;;;;;;;;;4.67;4.67;;;;;;;;5080751;28;9255;-85
2022/05/15 06:12:41;;;;;;;;;4.00;4.00;;;;;;;;5070920;28;9275;-79
2022/05/15 06:15:10;;;;;;;;;5.67;3.67;;;;;;;;5084554;28;9298;-82
2022/05/15 06:17:38;;;;;;;;;3.00;3.00;;;;;;;;5079603;28;9074;-82
2022/05/15 06:20:09;;;;;;;;;4.00;4.00;;;;;;;;5077213;28;9309;-82
2022/05/15 06:22:36;;;;;;;;;5.67;5.00;;;;;;;;5068070;28;9007;-80
2022/05/15 06:25:05;;;;;;;;;3.67;3.67;;;;;;;;5066271;28;9112;-82
2022/05/15 06:27:34;;;;;;;;;5.00;5.00;;;;;;;;5048367;28;9108;-84
2022/05/15 06:30:01;;;;;;;;;4.33;4.33;;;;;;;;5063095;28;8993;-84
2022/05/15 06:32:36;;;;;;;;;4.00;2.50;;;;;;;;5065538;28;8989;-85
2022/05/15 06:35:14;;;;;;;;;;;;;;;;;;;;;
2022/05/15 06:37:42;;;;;;;;;4.00;4.00;;;;;;;;5066736;28;8847;-84
2022/05/15 06:40:20;;;;;;;;;4.00;4.00;;;;;;;;5075134;28;8952;-88
2022/05/15 06:42:49;;;;;;;;;5.00;5.00;;;;;;;;5048733;28;8893;-79
2022/05/15 06:45:16;;;;;;;;;5.25;4.50;;;;;;;;5082169;28;9177;-84
2022/05/15 06:47:43;;;;;;;;;5.75;4.50;;;;;;;;5070547;28;8848;-81
2022/05/15 06:50:11;;;;;;;;;3.50;3.50;;;;;;;;5063914;28;8854;-80
2022/05/15 06:52:40;;;;;;;;;5.50;4.00;;;;;;;;5071781;28;8984;-82
2022/05/15 06:55:09;;;;;;;;;5.00;5.00;;;;;;;;5073960;28;8871;-84
2022/05/15 06:57:38;;;;;;;;;6.00;4.25;;;;;;;;5063345;28;8858;-80
2022/05/15 07:00:11;;;;;;;;;4.00;4.00;;;;;;;;5068864;28;8943;-85
2022/05/15 07:02:41;;;;;;;;;5.75;4.00;;;;;;;;5053907;28;8894;-90
2022/05/15 07:05:10;;;;;;;;;6.00;6.00;;;;;;;;5062871;28;8885;-86
2022/05/15 07:07:38;;;;;;;;;6.00;6.00;;;;;;;;5063650;28;8874;-85
2022/05/15 07:10:06;;;;;;;;;5.00;2.25;;;;;;;;5060080;28;8846;-81
2022/05/15 07:12:33;;;;;;;;;7.25;5.50;;;;;;;;5058278;28;8890;-87
2022/05/15 07:15:03;;;;;;;;;4.25;4.25;;;;;;;;5062106;28;8898;-85
2022/05/15 07:17:32;;;;;;;;;4.00;4.00;;;;;;;;5047747;28;8868;-84
2022/05/15 07:20:00;;;;;;;;;4.00;4.00;;;;;;;;5048600;28;8862;-86
2022/05/15 07:22:28;;;;;;;;;4.25;4.25;;;;;;;;5067925;28;8859;-84
2022/05/15 07:24:55;;;;;;;;;3.75;3.75;;;;;;;;5067470;28;8984;-81
2022/05/15 07:27:22;;;;;;;;;5.50;3.00;;;;;;;;5061299;28;8877;-81
2022/05/15 07:29:50;;;;;;;;;3.50;3.50;;;;;;;;5051594;28;8880;-81
2022/05/15 07:32:17;;;;;;;;;5.00;4.00;;;;;;;;5059648;28;8798;-87
2022/05/15 07:34:46;;;;;;;;;5.00;3.50;;;;;;;;5068266;28;8863;-86
2022/05/15 07:37:16;;;;;;;;;3.75;3.75;;;;;;;;5067039;28;8842;-82
2022/05/15 07:39:44;;;;;;;;;7.00;5.50;;;;;;;;5044836;28;8855;-80
2022/05/15 07:42:11;;;;;;;;;3.75;3.75;;;;;;;;5055915;28;8873;-82
2022/05/15 07:44:39;;;;;;;;;3.25;3.25;;;;;;;;5061471;28;8874;-83
2022/05/15 07:47:08;;;;;;;;;5.50;3.75;;;;;;;;5060578;28;8858;-80
2022/05/15 07:49:35;;;;;;;;;4.50;3.50;;;;;;;;5056847;28;8865;-85
2022/05/15 07:52:05;;;;;;;;;4.75;4.75;;;;;;;;5056449;28;8874;-83
2022/05/15 07:54:33;;;;;;;;;6.25;5.25;;;;;;;;5079543;28;9679;-80
2022/05/15 07:57:01;;;;;;;;;4.75;4.00;;;;;;;;5044521;28;8858;-84
2022/05/15 07:59:29;;;;;;;;;3.00;3.00;;;;;;;;5063645;28;8857;-84
2022/05/15 08:01:58;;;;;;;;;4.25;4.25;;;;;;;;5051276;28;8804;-82
2022/05/15 08:04:25;;;;;;;;;3.00;3.00;;;;;;;;5073776;28;8850;-80
2022/05/15 08:09:47;;;;;;;;;5.00;5.00;;;;;;;;5010627;28;9672;-82
2022/05/15 08:12:14;;;;;;;;;4.00;4.00;;;;;;;;5055871;28;8840;-81
2022/05/15 08:14:43;;;;;;;;;2.00;2.00;;;;;;;;5054078;28;9642;-81
2022/05/15 08:17:10;;;;;;;;;4.40;3.00;;;;;;;;5049708;28;8852;-85
2022/05/15 08:25:09;;;;;;;;;7.60;6.00;;;;;;;;5066108;28;8834;-83
2022/05/15 08:27:37;;;;;;;;;4.80;4.80;;;;;;;;5065973;28;8904;-79
2022/05/15 08:30:05;;;;;;;;;4.20;4.20;;;;;;;;5045419;28;8870;-84
2022/05/15 08:32:32;;;;;;;;;5.00;5.00;;;;;;;;5064054;28;9637;-77
2022/05/15 08:35:01;;;;;;;;;6.40;5.00;;;;;;;;5065023;28;8867;-82
2022/05/15 08:37:30;;;;;;;;;5.80;4.00;;;;;;;;5037704;28;8908;-83
2022/05/15 08:39:57;;;;;;;;;4.80;4.20;;;;;;;;5060461;28;8873;-85
2022/05/15 08:42:39;;;;;;;;;3.80;3.80;;;;;;;;5059230;28;9023;-83
2022/05/15 08:45:12;;;;;;;;;3.00;3.00;;;;;;;;5057906;28;8952;-82
2022/05/15 08:47:43;;;;;;;;;6.00;4.00;;;;;;;;5060427;28;8991;-83
2022/05/15 08:50:13;;;;;;;;;4.20;4.20;;;;;;;;5057859;28;8868;-81
2022/05/15 08:52:56;;;;;;;;;5.00;3.40;;;;;;;;5055654;28;8864;-81
2022/05/15 08:55:25;;;;;;;;;9.00;8.60;;;;;;;;5057842;28;8862;-80
2022/05/15 08:57:57;;;;;;;;;5.00;5.00;;;;;;;;5026823;28;9608;-80
2022/05/15 09:00:27;;;;;;;;;5.60;5.60;;;;;;;;5052511;28;8793;-83
2022/05/15 09:03:06;;;;;;;;;6.00;6.00;;;;;;;;5047198;28;8861;-83
2022/05/15 09:05:37;;;;;;;;;2.80;2.80;;;;;;;;5056893;28;8876;-85
2022/05/15 09:08:20;;;;;;;;;7.80;6.40;;;;;;;;5052052;28;8862;-83
2022/05/15 09:10:51;;;;;;;;;5.40;5.40;;;;;;;;5055510;28;8925;-80
2022/05/15 09:13:26;;;;;;;;;3.60;3.60;;;;;;;;5061350;28;8900;-80
2022/05/15 09:16:00;;;;;;;;;5.80;5.80;;;;;;;;5052666;28;8874;-81
2022/05/15 09:18:28;;;;;;;;;2.40;1.60;;;;;;;;5042699;28;9395;-84
2022/05/15 09:21:08;;;;;;;;;8.20;6.80;;;;;;;;5052509;28;8999;-83
2022/05/15 09:23:38;;;;;;;;;2.20;2.20;;;;;;;;5055585;28;8916;-83
2022/05/15 09:26:16;;;;;;;;;4.00;4.00;;;;;;;;5050792;28;8869;-82
2022/05/15 09:28:47;;;;;;;;;19.80;14.00;;;;;;;;5061589;28;8869;-83
2022/05/15 09:31:25;;;;;;;;;4.00;4.00;;;;;;;;5067269;28;8810;-88
2022/05/15 09:33:56;;;;;;;;;7.00;6.60;;;;;;;;5070208;28;8861;-89
2022/05/15 09:36:29;;;;;;;;;13.20;13.00;;;;;;;;5066125;28;8870;-82
2022/05/15 09:39:17;;;;;;;;;4.20;4.20;;;;;;;;5065022;28;9202;-81
2022/05/15 09:44:33;;;;;;;;;8.80;8.80;;;;;;;;5066100;28;8818;-81
2022/05/15 09:47:04;;;;;;;;;3.40;3.40;;;;;;;;5060022;28;9022;-81
2022/05/15 09:49:34;;;;;;;;;3.80;1.40;;;;;;;;5057094;28;9475;-81
2022/05/15 09:52:07;;;;;;;;;3.20;3.20;;;;;;;;5062233;28;8874;-86
2022/05/15 09:54:43;;;;;;;;;5.80;5.80;;;;;;;;5040433;28;8878;-79
2022/05/15 10:01:12;;;;;;;;;9.40;9.40;;;;;;;;5011987;22;8906;-83
2022/05/15 10:03:46;;;;;;;;;28.80;25.60;;;;;;;;4987590;28;8898;-81
2022/05/15 10:06:20;;;;;;;;;3.60;3.60;;;;;;;;4989093;28;8878;-80
2022/05/15 10:09:04;;;;;;;;;12.80;12.60;;;;;;;;4985998;28;9003;-80
2022/05/15 10:11:31;;;;;;;;;3.00;3.00;;;;;;;;5010406;28;9766;-78
2022/05/15 10:14:00;;;;;;;;;5.80;5.80;;;;;;;;5040716;28;8876;-80
2022/05/15 10:16:31;;;;;;;;;20.20;20.20;;;;;;;;5045296;28;9825;-82
2022/05/15 10:19:05;;;;;;;;;5.80;5.80;;;;;;;;5052376;28;8887;-81
2022/05/15 10:21:40;;;;;;;;;16.80;16.80;;;;;;;;5049795;28;8871;-81
2022/05/15 10:24:14;;;;;;;;;4.20;4.20;;;;;;;;5053059;28;8998;-87
2022/05/15 10:26:53;;;;;;;;;4.60;4.60;;;;;;;;5061757;28;8879;-84
2022/05/15 10:29:42;;;;;;;;;2.20;1.60;;;;;;;;5052063;28;9002;-80
2022/05/15 10:32:19;;;;;;;;;4.60;4.60;;;;;;;;5072447;28;9970;-85
2022/05/15 10:34:57;;;;;;;;;3.00;3.00;;;;;;;;5074959;28;8898;-85
2022/05/15 10:37:42;;;;;;;;;0.60;0.60;;;;;;;;5082355;28;8881;-83
2022/05/15 10:40:20;;;;;;;;;4.20;4.20;;;;;;;;5070779;28;8994;-79
2022/05/15 10:42:58;;;;;;;;;5.80;5.80;;;;;;;;5073092;28;8969;-80
2022/05/15 10:45:31;;;;;;;;;4.60;4.60;;;;;;;;5069661;28;8858;-79
2022/05/15 10:48:12;;;;;;;;;4.40;4.40;;;;;;;;5071295;28;8857;-82
2022/05/15 10:50:50;;;;;;;;;6.20;6.20;;;;;;;;5076643;28;8879;-85
2022/05/15 10:59:31;;;;;;;;;21.20;19.60;;;;;;;;5072454;28;8830;-83
2022/05/15 11:02:21;;;;;;;;;3.20;3.20;;;;;;;;5030041;28;8858;-83
2022/05/15 11:04:52;;;;;;;;;7.00;7.00;;;;;;;;5029549;28;8943;-83
2022/05/15 11:07:27;;;;;;;;;4.00;4.00;;;;;;;;5031572;28;8963;-86
2022/05/15 11:10:09;;;;;;;;;3.60;2.00;;;;;;;;5033375;28;8895;-83
2022/05/15 11:12:41;;;;;;;;;6.60;6.60;;;;;;;;5035921;28;8902;-83
2022/05/15 11:15:28;;;;;;;;;2.20;2.20;;;;;;;;5035086;28;8889;-82
2022/05/15 11:18:05;;;;;;;;;20.00;15.60;;;;;;;;5031799;28;8877;-82
2022/05/15 11:20:41;;;;;;;;;12.20;9.80;;;;;;;;5031295;28;8867;-82
2022/05/15 11:23:14;;;;;;;;;23.80;21.80;;;;;;;;5022576;28;8913;-83
2022/05/15 11:25:45;;;;;;;;;8.20;8.20;;;;;;;;5026822;28;8889;-83
2022/05/15 11:28:20;;;;;;;;;9.00;7.40;;;;;;;;5032342;28;8867;-81
2022/05/15 11:30:53;;;;;;;;;16.00;16.00;;;;;;;;5028506;28;8836;-83
2022/05/15 11:33:31;;;;;;;;;17.20;17.20;;;;;;;;5027768;28;8985;-82
2022/05/15 11:36:10;;;;;;;;;4.40;4.00;;;;;;;;5029805;28;9525;-82
2022/05/15 11:38:47;;;;;;;;;4.00;4.00;;;;;;;;5028316;28;8888;-85
2022/05/15 11:41:38;;;;;;;;;1.00;1.00;;;;;;;;5033690;28;8924;-84
2022/05/15 11:44:09;;;;;;;;;2.60;2.60;;;;;;;;5024901;28;8877;-84
2022/05/15 11:53:06;;;;;;;;;12.20;11.40;;;;;;;;5017645;28;9003;-81
2022/05/15 11:55:43;;;;;;;;;30.80;28.60;;;;;;;;5029268;28;8899;-82
2022/05/15 11:58:36;;;;;;;;;17.20;16.60;;;;;;;;5021762;28;8913;-86
2022/05/15 12:01:12;;;;;;;;;12.20;12.00;;;;;;;;5028418;28;8812;-85
2022/05/15 12:03:55;;;;;;;;;15.00;15.00;;;;;;;;5017338;28;8864;-82
2022/05/15 12:06:25;;;;;;;;;20.60;18.80;;;;;;;;5030370;28;9034;-82
2022/05/15 12:09:34;;;;;;;;;3.00;3.00;;;;;;;;5007152;28;8877;-81
2022/05/15 12:15:35;;;;;;;;;1.00;1.00;;;;;;;;4994568;28;8868;-82
2022/05/15 12:18:22;;;;;;;;;2.00;2.00;;;;;;;;5029336;28;9810;-86
2022/05/15 12:20:51;;;;;;;;;0.80;0.80;;;;;;;;5027415;28;8987;-81
2022/05/15 12:23:25;;;;;;;;;2.60;2.00;;;;;;;;5033710;28;8862;-85
2022/05/15 12:26:03;;;;;;;;;1.60;1.00;;;;;;;;5031697;28;8856;-81
2022/05/15 12:28:53;;;;;;;;;3.00;3.00;;;;;;;;5026342;28;8860;-83
2022/05/15 12:31:25;;;;;;;;;2.80;2.80;;;;;;;;5032741;28;8817;-85
2022/05/15 12:33:53;;;;;;;;;1.00;1.00;;;;;;;;5021903;28;8870;-85
2022/05/15 12:36:31;;;;;;;;;2.00;1.20;;;;;;;;5031824;28;8888;-83
2022/05/15 12:38:59;;;;;;;;;1.40;1.00;;;;;;;;5033814;28;8862;-90
2022/05/15 12:41:36;;;;;;;;;0.40;0.40;;;;;;;;5035420;28;8884;-86
2022/05/15 12:44:10;;;;;;;;;2.00;0.00;;;;;;;;5035250;28;8891;-89
2022/05/15 12:46:39;;;;;;;;;0.00;0.00;;;;;;;;5030313;28;8949;-88
2022/05/15 12:49:08;;;;;;;;;1.80;1.80;;;;;;;;5033312;28;8860;-84
2022/05/15 12:51:37;;;;;;;;;0.80;0.80;;;;;;;;5026735;28;8991;-86
2022/05/15 12:54:21;;;;;;;;;0.00;0.00;;;;;;;;5031495;28;8863;-86
2022/05/15 12:57:00;;;;;;;;;2.00;2.00;;;;;;;;5032022;28;8864;-84
2022/05/15 12:59:29;;;;;;;;;1.60;0.60;;;;;;;;5022809;28;8908;-81
2022/05/15 13:01:56;;;;;;;;;2.60;1.00;;;;;;;;5035986;28;9024;-84
2022/05/15 13:04:26;;;;;;;;;1.80;0.80;;;;;;;;5030395;28;8863;-84
2022/05/15 13:06:57;;;;;;;;;1.00;1.00;;;;;;;;5035730;28;8922;-84
2022/05/15 13:09:27;;;;;;;;;1.00;1.00;;;;;;;;5031595;28;8858;-85
2022/05/15 13:11:59;;;;;;;;;0.00;0.00;;;;;;;;5021303;28;8887;-82
2022/05/15 13:14:31;;;;;;;;;0.00;0.00;;;;;;;;5033621;28;8882;-82
2022/05/15 13:17:00;;;;;;;;;3.00;0.00;;;;;;;;5016266;28;8876;-82
2022/05/15 13:19:30;;;;;;;;;0.00;0.00;;;;;;;;5026974;28;8907;-83
2022/05/15 13:22:01;;;;;;;;;0.00;0.00;;;;;;;;5012081;28;8902;-80
2022/05/15 13:24:31;;;;;;;;;0.00;0.00;;;;;;;;5009058;28;8880;-83
2022/05/15 13:27:03;;;;;;;;;0.00;0.00;;;;;;;;5026652;28;8936;-81
2022/05/15 13:29:33;;;;;;;;;1.00;1.00;;;;;;;;5016566;28;8872;-83
2022/05/15 13:32:15;;;;;;;;;0.00;0.00;;;;;;;;5036030;28;8820;-84
2022/05/15 13:34:49;;;;;;;;;0.00;0.00;;;;;;;;5030505;28;8876;-81
2022/05/15 13:37:30;;;;;;;;;0.00;0.00;;;;;;;;5037395;28;8872;-83
2022/05/15 13:45:50;;;;;;;;;2.00;0.20;;;;;;;;5021131;28;8825;-85
2022/05/15 13:48:18;;;;;;;;;0.00;0.00;;;;;;;;5027384;28;8883;-86
2022/05/15 13:50:47;;;;;;;;;1.00;0.00;;;;;;;;5039009;28;8856;-82
2022/05/15 13:53:30;;;;;;;;;0.00;0.00;;;;;;;;5014339;28;8927;-86
2022/05/15 13:56:00;;;;;;;;;0.00;0.00;;;;;;;;5030811;28;8887;-82
2022/05/15 13:58:55;;;;;;;;;1.00;0.00;;;;;;;;5032672;28;8863;-85
2022/05/15 14:01:24;;;;;;;;;0.00;0.00;;;;;;;;5023676;28;8836;-87
2022/05/15 14:03:53;;;;;;;;;0.00;0.00;;;;;;;;5022344;28;8890;-85
2022/05/15 14:06:32;;;;;;;;;0.00;0.00;;;;;;;;5025336;28;8905;-81
2022/05/15 14:11:58;;;;;;;;;0.00;0.00;;;;;;;;5002965;28;8880;-81
2022/05/15 14:14:50;;;;;;;;;1.60;1.60;;;;;;;;5026165;28;8879;-82
2022/05/15 14:17:20;;;;;;;;;1.00;1.00;;;;;;;;5032885;28;8868;-83
2022/05/15 14:19:50;;;;;;;;;1.00;1.00;;;;;;;;5023855;28;8955;-82
2022/05/15 14:22:17;;;;;;;;;0.00;0.00;;;;;;;;5032320;28;8880;-81
2022/05/15 14:24:44;;;;;;;;;2.60;0.00;;;;;;;;5035807;28;8868;-80
2022/05/15 14:27:12;;;;;;;;;0.00;0.00;;;;;;;;5024379;28;9764;-83
2022/05/15 14:29:40;;;;;;;;;0.60;0.60;;;;;;;;5025393;28;9641;-81
2022/05/15 14:32:17;;;;;;;;;0.00;0.00;;;;;;;;5033417;28;8818;-81
2022/05/15 14:34:44;;;;;;;;;1.00;1.00;;;;;;;;5016190;28;8870;-82
2022/05/15 14:37:15;;;;;;;;;0.00;0.00;;;;;;;;5013613;28;8879;-89
2022/05/15 14:39:43;;;;;;;;;1.00;1.00;;;;;;;;5023739;28;8947;-82
2022/05/15 14:42:10;;;;;;;;;1.20;0.60;;;;;;;;5019440;28;8988;-84
2022/05/15 14:44:38;;;;;;;;;1.20;1.20;;;;;;;;5032198;28;8854;-85
2022/05/15 14:47:10;;;;;;;;;3.00;1.00;;;;;;;;5028114;28;8876;-88
2022/05/15 14:49:41;;;;;;;;;1.00;1.00;;;;;;;;5021696;28;8901;-84
2022/05/15 14:52:09;;;;;;;;;1.00;1.00;;;;;;;;5016124;28;8848;-83
2022/05/15 14:54:40;;;;;;;;;1.00;1.00;;;;;;;;5025197;28;8926;-83
2022/05/15 14:57:11;;;;;;;;;0.20;0.20;;;;;;;;5037575;28;8961;-83
2022/05/15 14:59:43;;;;;;;;;1.00;1.00;;;;;;;;5035360;28;8891;-86
2022/05/15 15:02:12;;;;;;;;;1.40;1.40;;;;;;;;5029896;28;8821;-86
2022/05/15 15:04:42;;;;;;;;;0.00;0.00;;;;;;;;5025588;28;8935;-86
2022/05/15 15:07:09;;;;;;;;;1.00;1.00;;;;;;;;5031301;28;9003;-83
2022/05/15 15:09:37;;;;;;;;;0.80;0.80;;;;;;;;5030627;28;8855;-83
2022/05/15 15:12:06;;;;;;;;;2.00;0.80;;;;;;;;5027567;28;8901;-82
2022/05/15 15:14:34;;;;;;;;;1.00;1.00;;;;;;;;5031823;28;9570;-83
2022/05/15 15:17:01;;;;;;;;;0.00;0.00;;;;;;;;5025769;28;8986;-85
2022/05/15 15:19:41;;;;;;;;;0.80;0.80;;;;;;;;5034997;28;8887;-84
2022/05/15 15:22:27;;;;;;;;;1.00;1.00;;;;;;;;5020305;28;8868;-83
2022/05/15 15:24:54;;;;;;;;;1.00;1.00;;;;;;;;5004434;28;8963;-79
2022/05/15 15:27:21;;;;;;;;;1.00;1.00;;;;;;;;5018408;28;8848;-81
2022/05/15 15:29:49;;;;;;;;;1.40;1.20;;;;;;;;5007090;28;10049;-82
2022/05/15 15:32:16;;;;;;;;;0.00;0.00;;;;;;;;5017001;28;8829;-82
2022/05/15 15:34:46;;;;;;;;;1.00;1.00;;;;;;;;5014226;28;8867;-81
2022/05/15 15:39:58;;;;;;;;;5.00;1.80;;;;;;;;5013050;28;8824;-82
2022/05/15 15:42:27;;;;;;;;;2.80;1.20;;;;;;;;5014552;28;8844;-81
2022/05/15 15:44:55;;;;;;;;;0.00;0.00;;;;;;;;5013879;28;8891;-82
2022/05/15 15:47:22;;;;;;;;;1.00;1.00;;;;;;;;5012126;28;9713;-82
2022/05/15 15:49:51;;;;;;;;;3.00;1.40;;;;;;;;5014809;28;8890;-81
2022/05/15 15:52:18;;;;;;;;;0.60;0.60;;;;;;;;5012384;28;8933;-83
2022/05/15 15:54:46;;;;;;;;;0.40;0.40;;;;;;;;5014914;28;8903;-81
2022/05/15 15:57:13;;;;;;;;;2.00;1.00;;;;;;;;5014676;28;8877;-81
2022/05/15 15:59:41;;;;;;;;;1.00;1.00;;;;;;;;5009783;28;9711;-81